createdAt,value
2018-01-21T00:00:27.142Z,95.40
2018-01-21T00:02:55.356Z,95.60
2018-01-21T00:05:22.783Z,95.60
2018-01-21T00:07:51.093Z,95.10
2018-01-21T00:10:18.493Z,95.10
2018-01-21T00:12:45.928Z,95.60
2018-01-21T00:15:13.361Z,95.90
2018-01-21T00:17:40.796Z,95.60
2018-01-21T00:20:08.231Z,95.70
2018-01-21T00:22:41.438Z,95.40
2018-01-21T00:25:08.885Z,95.40
2018-01-21T00:27:37.077Z,95.50
2018-01-21T00:30:04.496Z,95.40
2018-01-21T00:32:31.924Z,95.20
2018-01-21T00:34:59.364Z,95.40
2018-01-21T00:37:26.796Z,95.10
2018-01-21T00:39:54.217Z,95.10
2018-01-21T00:42:21.653Z,95.70
2018-01-21T00:44:49.075Z,96.40
2018-01-21T00:47:16.510Z,96.40
2018-01-21T00:49:44.699Z,96.00
2018-01-21T00:52:12.888Z,96.40
2018-01-21T00:54:40.331Z,96.40
2018-01-21T00:57:08.524Z,97.10
2018-01-21T00:59:35.959Z,96.70
2018-01-21T01:02:04.173Z,97.00
2018-01-21T01:04:31.601Z,96.90
2018-01-21T01:06:59.052Z,97.20
2018-01-21T01:09:26.483Z,96.80
2018-01-21T01:11:53.928Z,96.60
2018-01-21T01:14:21.369Z,97.10
2018-01-21T01:16:48.794Z,97.70
2018-01-21T01:19:16.219Z,97.70
2018-01-21T01:21:44.422Z,97.60
2018-01-21T01:24:11.854Z,97.60
2018-01-21T01:26:40.048Z,98.30
2018-01-21T01:29:07.501Z,98.00
2018-01-21T01:31:34.935Z,97.90
2018-01-21T01:34:02.366Z,97.90
2018-01-21T01:36:29.784Z,98.80
2018-01-21T01:38:57.212Z,98.90
2018-01-21T01:41:25.413Z,98.40
2018-01-21T01:43:52.844Z,98.40
2018-01-21T01:46:21.500Z,98.00
2018-01-21T01:48:54.905Z,97.90
2018-01-21T01:51:22.336Z,98.70
2018-01-21T01:53:49.784Z,99.10
2018-01-21T01:56:17.200Z,98.90
2018-01-21T01:58:45.411Z,99.00
2018-01-21T02:01:12.844Z,99.40
2018-01-21T02:03:41.078Z,98.90
2018-01-21T02:06:08.489Z,98.90
2018-01-21T02:08:35.916Z,99.00
2018-01-21T02:11:03.368Z,98.30
2018-01-21T02:13:30.800Z,99.00
2018-01-21T02:15:58.219Z,98.70
2018-01-21T02:18:25.663Z,98.90
2018-01-21T02:20:53.859Z,99.30
2018-01-21T02:23:21.287Z,99.30
2018-01-21T02:25:49.475Z,98.50
2018-01-21T02:28:16.920Z,98.50
2018-01-21T02:30:45.132Z,99.00
2018-01-21T02:33:12.561Z,99.00
2018-01-21T02:35:40.753Z,98.30
2018-01-21T02:38:08.196Z,98.30
2018-01-21T02:40:35.642Z,98.10
2018-01-21T02:43:03.061Z,98.90
2018-01-21T02:45:30.517Z,98.80
2018-01-21T02:47:57.949Z,98.80
2018-01-21T02:50:25.417Z,98.20
2018-01-21T02:52:52.862Z,98.30
2018-01-21T02:55:20.280Z,98.50
2018-01-21T02:57:48.480Z,98.40
2018-01-21T03:00:15.912Z,98.40
2018-01-21T03:02:44.108Z,98.60
2018-01-21T03:05:11.544Z,98.60
2018-01-21T03:07:39.761Z,98.90
2018-01-21T03:10:07.191Z,98.90
2018-01-21T03:12:35.379Z,98.80
2018-01-21T03:15:02.811Z,98.80
2018-01-21T03:17:31.004Z,99.30
2018-01-21T03:19:58.435Z,99.20
2018-01-21T03:22:26.644Z,99.50
2018-01-21T03:24:54.080Z,99.10
2018-01-21T03:27:22.538Z,98.30
2018-01-21T03:29:49.951Z,98.30
2018-01-21T03:32:17.381Z,98.60
2018-01-21T03:34:45.582Z,98.00
2018-01-21T03:37:13.026Z,98.00
2018-01-21T03:39:40.476Z,98.10
2018-01-21T03:42:08.672Z,97.60
2018-01-21T03:44:36.118Z,97.60
2018-01-21T03:47:03.541Z,97.50
2018-01-21T03:49:30.972Z,97.90
2018-01-21T03:51:58.408Z,98.00
2018-01-21T03:54:25.873Z,98.60
2018-01-21T03:56:53.288Z,98.80
2018-01-21T03:59:21.472Z,98.10
2018-01-21T04:01:48.925Z,98.10
2018-01-21T04:04:17.153Z,98.20
2018-01-21T04:06:44.579Z,98.20
2018-01-21T04:09:12.008Z,98.10
2018-01-21T04:11:40.432Z,98.80
2018-01-21T04:14:07.885Z,98.80
2018-01-21T04:16:35.311Z,98.30
2018-01-21T04:19:02.803Z,98.50
2018-01-21T04:21:30.232Z,99.10
2018-01-21T04:23:57.675Z,98.70
2018-01-21T04:26:25.888Z,98.50
2018-01-21T04:28:53.322Z,98.50
2018-01-21T04:31:20.745Z,98.60
2018-01-21T04:33:48.164Z,98.80
2018-01-21T04:36:15.606Z,98.60
2018-01-21T04:38:43.030Z,98.20
2018-01-21T04:41:11.245Z,97.90
2018-01-21T04:43:38.680Z,97.80
2018-01-21T04:46:06.164Z,97.30
2018-01-21T04:48:33.612Z,97.60
2018-01-21T04:51:01.049Z,97.50
2018-01-21T04:53:28.475Z,97.40
2018-01-21T04:55:55.922Z,97.70
2018-01-21T04:58:23.341Z,97.40
2018-01-21T05:00:50.777Z,97.50
2018-01-21T05:03:18.200Z,97.60
2018-01-21T05:05:45.634Z,97.70
2018-01-21T05:08:13.056Z,97.50
2018-01-21T05:10:40.479Z,97.60
2018-01-21T05:13:08.672Z,97.60
2018-01-21T05:15:36.885Z,97.90
2018-01-21T05:18:04.316Z,97.90
2018-01-21T05:20:31.772Z,98.70
2018-01-21T05:22:59.953Z,98.00
2018-01-21T05:25:27.381Z,98.00
2018-01-21T05:27:56.088Z,97.70
2018-01-21T05:30:23.612Z,97.60
2018-01-21T05:32:51.028Z,97.60
2018-01-21T05:35:18.445Z,97.10
2018-01-21T05:37:46.662Z,97.20
2018-01-21T05:40:14.097Z,97.20
2018-01-21T05:42:41.545Z,97.00
2018-01-21T05:45:08.980Z,97.40
2018-01-21T05:47:36.399Z,97.30
2018-01-21T05:50:03.840Z,97.10
2018-01-21T05:52:31.272Z,97.00
2018-01-21T05:54:59.472Z,97.30
2018-01-21T05:57:26.906Z,97.20
2018-01-21T05:59:54.363Z,97.70
2018-01-21T06:02:21.792Z,98.00
2018-01-21T06:04:49.219Z,98.20
2018-01-21T06:07:16.641Z,97.90
2018-01-21T06:09:44.080Z,97.20
2018-01-21T06:12:12.837Z,97.30
2018-01-21T06:14:40.249Z,97.30
2018-01-21T06:17:07.682Z,97.80
2018-01-21T06:19:35.876Z,98.00
2018-01-21T06:22:03.309Z,98.00
2018-01-21T06:24:31.508Z,97.70
2018-01-21T06:26:58.984Z,97.70
2018-01-21T06:29:26.388Z,98.60
2018-01-21T06:31:53.841Z,98.20
2018-01-21T06:34:21.265Z,98.50
2018-01-21T06:36:48.702Z,97.80
2018-01-21T06:39:16.116Z,97.60
2018-01-21T06:41:43.549Z,97.60
2018-01-21T06:44:10.978Z,97.30
2018-01-21T06:46:38.409Z,97.10
2018-01-21T06:49:06.625Z,97.00
2018-01-21T06:51:34.056Z,97.00
2018-01-21T06:54:01.489Z,96.90
2018-01-21T06:56:30.600Z,97.10
2018-01-21T06:58:58.038Z,96.90
2018-01-21T07:01:25.465Z,97.10
2018-01-21T07:03:52.894Z,96.90
2018-01-21T07:06:20.323Z,96.60
2018-01-21T07:08:47.756Z,96.30
2018-01-21T07:11:16.104Z,97.20
2018-01-21T07:13:43.545Z,97.40
2018-01-21T07:16:10.977Z,97.30
2018-01-21T07:18:39.171Z,97.20
2018-01-21T07:21:06.601Z,97.20
2018-01-21T07:23:34.788Z,97.10
2018-01-21T07:26:02.245Z,97.10
2018-01-21T07:28:29.866Z,97.10
2018-01-21T07:30:57.297Z,96.80
2018-01-21T07:33:24.724Z,96.80
2018-01-21T07:35:52.168Z,96.80
2018-01-21T07:38:20.389Z,97.00
2018-01-21T07:40:47.856Z,97.00
2018-01-21T07:43:15.272Z,97.30
2018-01-21T07:45:42.699Z,96.50
2018-01-21T07:48:10.895Z,96.80
2018-01-21T07:50:39.128Z,96.80
2018-01-21T07:53:06.566Z,96.80
2018-01-21T07:55:33.988Z,96.90
2018-01-21T07:58:01.442Z,97.20
2018-01-21T08:00:30.548Z,97.50
2018-01-21T08:02:57.981Z,97.50
2018-01-21T08:05:26.168Z,97.20
2018-01-21T08:07:54.376Z,97.00
2018-01-21T08:10:21.828Z,97.00
2018-01-21T08:12:49.264Z,97.30
2018-01-21T08:15:16.717Z,97.50
2018-01-21T08:17:44.919Z,97.50
2018-01-21T08:20:12.345Z,97.50
2018-01-21T08:22:40.551Z,97.80
2018-01-21T08:25:07.996Z,97.80
2018-01-21T08:27:35.421Z,97.70
2018-01-21T08:30:03.619Z,97.50
2018-01-21T08:32:31.056Z,97.50
2018-01-21T08:35:04.913Z,96.70
2018-01-21T08:37:38.056Z,97.10
2018-01-21T08:40:11.926Z,96.50
2018-01-21T08:42:49.266Z,96.50
2018-01-21T08:45:17.454Z,97.40
2018-01-21T08:47:44.880Z,97.40
2018-01-21T08:50:13.084Z,97.00
2018-01-21T08:52:40.512Z,96.70
2018-01-21T08:55:08.707Z,96.80
2018-01-21T08:57:36.168Z,96.80
2018-01-21T09:00:03.596Z,96.30
2018-01-21T09:02:31.029Z,96.50
2018-01-21T09:04:58.459Z,95.30
2018-01-21T09:07:25.899Z,95.50
2018-01-21T09:09:53.324Z,95.50
2018-01-21T09:12:20.752Z,96.10
2018-01-21T09:14:48.189Z,96.30
2018-01-21T09:17:15.621Z,96.30
2018-01-21T09:19:43.060Z,96.80
2018-01-21T09:22:10.510Z,97.00
2018-01-21T09:24:37.944Z,96.70
2018-01-21T09:27:05.380Z,96.20
2018-01-21T09:29:32.832Z,96.50
2018-01-21T09:32:00.257Z,97.00
2018-01-21T09:34:28.473Z,97.40
2018-01-21T09:36:55.907Z,97.40
2018-01-21T09:39:23.343Z,97.00
2018-01-21T09:41:51.540Z,96.80
2018-01-21T09:44:18.990Z,96.70
2018-01-21T09:46:46.429Z,96.30
2018-01-21T09:49:14.625Z,96.60
2018-01-21T09:51:42.060Z,96.60
2018-01-21T09:54:10.867Z,97.20
2018-01-21T09:56:39.077Z,97.20
2018-01-21T09:59:06.525Z,97.20
2018-01-21T10:01:33.961Z,96.40
2018-01-21T10:04:01.398Z,96.20
2018-01-21T10:06:28.840Z,95.60
2018-01-21T10:08:56.281Z,95.80
2018-01-21T10:11:23.731Z,96.20
2018-01-21T10:13:51.157Z,95.80
2018-01-21T10:16:18.580Z,95.50
2018-01-21T10:18:47.137Z,96.60
2018-01-21T10:21:15.488Z,96.50
2018-01-21T10:23:42.912Z,96.10
2018-01-21T10:26:11.107Z,96.20
2018-01-21T10:28:38.565Z,96.20
2018-01-21T10:31:06.004Z,96.40
2018-01-21T10:33:34.207Z,96.00
2018-01-21T10:36:01.629Z,96.00
2018-01-21T10:38:30.748Z,95.60
2018-01-21T10:40:58.181Z,95.50
2018-01-21T10:43:26.380Z,95.60
2018-01-21T10:45:53.804Z,95.60
2018-01-21T10:48:21.238Z,95.20
2018-01-21T10:50:48.671Z,95.50
2018-01-21T10:53:16.112Z,95.40
2018-01-21T10:55:43.529Z,95.60
2018-01-21T10:58:11.724Z,96.10
2018-01-21T11:00:45.704Z,96.20
2018-01-21T11:03:13.160Z,96.10
2018-01-21T11:05:40.575Z,96.80
2018-01-21T11:08:08.012Z,96.50
2018-01-21T11:10:35.443Z,96.30
2018-01-21T11:13:03.740Z,95.70
2018-01-21T11:15:31.145Z,95.20
2018-01-21T11:17:58.587Z,95.00
2018-01-21T11:20:26.013Z,94.20
2018-01-21T11:22:54.216Z,94.70
2018-01-21T11:25:21.656Z,94.70
2018-01-21T11:27:49.127Z,95.10
2018-01-21T11:30:16.536Z,95.60
2018-01-21T11:32:43.964Z,95.80
2018-01-21T11:35:11.398Z,95.70
2018-01-21T11:37:38.851Z,95.20
2018-01-21T11:40:06.292Z,95.30
2018-01-21T11:42:34.476Z,94.70
2018-01-21T11:45:01.925Z,94.70
2018-01-21T11:47:30.137Z,94.20
2018-01-21T11:49:57.564Z,93.70
2018-01-21T11:52:24.997Z,94.60
2018-01-21T11:54:53.196Z,92.40
2018-01-21T11:57:20.644Z,92.50
2018-01-21T11:59:48.848Z,90.50
2018-01-21T12:02:16.261Z,90.50
2018-01-21T12:04:44.484Z,90.40
2018-01-21T12:07:11.897Z,90.40
2018-01-21T12:09:40.092Z,88.50
2018-01-21T12:12:07.562Z,88.40
2018-01-21T12:14:34.977Z,84.60
2018-01-21T12:17:03.177Z,81.40
2018-01-21T12:19:30.615Z,81.40
2018-01-21T12:21:58.815Z,78.00
2018-01-21T12:24:26.301Z,78.00
2018-01-21T12:26:53.750Z,79.40
2018-01-21T12:29:21.528Z,81.70
2018-01-21T12:31:49.009Z,80.60
2018-01-21T12:34:16.436Z,78.80
2018-01-21T12:36:43.863Z,80.20
2018-01-21T12:39:11.329Z,82.50
2018-01-21T12:41:38.760Z,81.90
2018-01-21T12:44:06.988Z,75.60
2018-01-21T12:46:34.439Z,75.50
2018-01-21T12:49:01.872Z,73.50
2018-01-21T12:51:30.235Z,68.80
2018-01-21T12:53:58.438Z,66.50
2018-01-21T12:56:25.853Z,66.50
2018-01-21T12:58:54.072Z,65.00
2018-01-21T13:01:21.527Z,64.90
2018-01-21T13:03:48.955Z,65.80
2018-01-21T13:06:17.159Z,72.50
2018-01-21T13:08:44.603Z,72.50
2018-01-21T13:11:12.027Z,79.50
2018-01-21T13:13:39.449Z,84.60
2018-01-21T13:16:06.917Z,86.20
2018-01-21T13:18:34.357Z,87.50
2018-01-21T13:21:01.793Z,88.60
2018-01-21T13:23:30.145Z,90.30
2018-01-21T13:25:58.340Z,89.80
2018-01-21T13:28:25.765Z,89.70
2018-01-21T13:30:53.962Z,90.90
2018-01-21T13:33:22.153Z,92.20
2018-01-21T13:35:49.919Z,92.20
2018-01-21T13:38:17.339Z,91.20
2018-01-21T13:40:44.776Z,90.80
2018-01-21T13:43:12.212Z,91.00
2018-01-21T13:45:39.660Z,90.90
2018-01-21T13:48:07.090Z,90.80
2018-01-21T13:50:35.288Z,89.60
2018-01-21T13:53:02.734Z,89.60
2018-01-21T13:55:30.409Z,89.50
2018-01-21T13:57:57.829Z,88.60
2018-01-21T14:00:26.066Z,89.90
2018-01-21T14:02:53.498Z,89.90
2018-01-21T14:05:20.956Z,90.50
2018-01-21T14:07:48.381Z,89.90
2018-01-21T14:10:16.602Z,89.30
2018-01-21T14:12:44.013Z,89.30
2018-01-21T14:15:12.199Z,88.70
2018-01-21T14:17:39.647Z,88.70
2018-01-21T14:20:07.846Z,88.30
2018-01-21T14:22:35.616Z,88.30
2018-01-21T14:25:03.073Z,84.10
2018-01-21T14:27:30.488Z,85.10
2018-01-21T14:29:57.920Z,83.80
2018-01-21T14:32:25.344Z,84.00
2018-01-21T14:34:52.789Z,84.20
2018-01-21T14:37:20.236Z,85.10
2018-01-21T14:39:48.437Z,85.40
2018-01-21T14:42:15.861Z,85.20
2018-01-21T14:44:44.070Z,85.10
2018-01-21T14:47:11.490Z,85.00
2018-01-21T14:49:39.697Z,84.80
2018-01-21T14:52:07.125Z,84.70
2018-01-21T14:54:35.330Z,89.30
2018-01-21T14:57:02.766Z,89.30
2018-01-21T14:59:30.301Z,87.50
2018-01-21T15:01:57.745Z,87.40
2018-01-21T15:04:25.181Z,85.80
2018-01-21T15:06:53.377Z,85.60
2018-01-21T15:09:20.827Z,85.50
2018-01-21T15:11:48.261Z,85.30
2018-01-21T15:14:15.684Z,84.60
2018-01-21T15:16:43.116Z,85.30
2018-01-21T15:19:10.548Z,87.00
2018-01-21T15:21:37.988Z,86.60
2018-01-21T15:24:05.425Z,86.50
2018-01-21T15:26:32.892Z,88.50
2018-01-21T15:29:01.072Z,88.10
2018-01-21T15:31:28.508Z,88.10
2018-01-21T15:33:56.709Z,88.40
2018-01-21T15:36:24.144Z,88.40
2018-01-21T15:38:51.567Z,87.60
2018-01-21T15:41:19.776Z,88.70
2018-01-21T15:43:47.213Z,87.80
2018-01-21T15:46:15.428Z,87.50
2018-01-21T15:48:43.460Z,87.40
2018-01-21T15:51:11.653Z,87.90
2018-01-21T15:53:39.085Z,87.90
2018-01-21T15:56:07.298Z,86.70
2018-01-21T15:58:34.725Z,86.60
2018-01-21T16:01:02.921Z,88.60
2018-01-21T16:03:30.420Z,88.50
2018-01-21T16:05:57.860Z,90.10
2018-01-21T16:08:25.320Z,88.80
2018-01-21T16:10:52.774Z,87.30
2018-01-21T16:13:20.208Z,87.50
2018-01-21T16:15:47.665Z,87.50
2018-01-21T16:18:15.104Z,88.00
2018-01-21T16:20:43.380Z,89.70
2018-01-21T16:23:10.736Z,89.70
2018-01-21T16:25:38.943Z,89.40
2018-01-21T16:28:06.368Z,89.40
2018-01-21T16:30:34.578Z,89.30
2018-01-21T16:33:02.000Z,89.20
2018-01-21T16:35:31.131Z,89.10
2018-01-21T16:38:10.548Z,89.10
2018-01-21T16:40:37.998Z,89.20
2018-01-21T16:43:06.194Z,89.20
2018-01-21T16:45:33.629Z,89.10
2018-01-21T16:48:01.831Z,89.40
2018-01-21T16:50:29.262Z,89.40
2018-01-21T16:52:57.449Z,90.00
2018-01-21T16:55:24.869Z,90.00
2018-01-21T16:57:52.305Z,90.10
2018-01-21T17:00:19.736Z,90.00
2018-01-21T17:02:47.197Z,90.20
2018-01-21T17:05:14.616Z,90.20
2018-01-21T17:07:42.809Z,90.40
2018-01-21T17:10:10.257Z,90.40
2018-01-21T17:12:37.689Z,90.60
2018-01-21T17:15:05.124Z,90.60
2018-01-21T17:17:32.556Z,90.70
2018-01-21T17:19:59.992Z,90.90
2018-01-21T17:22:27.417Z,90.80
2018-01-21T17:24:54.863Z,90.60
2018-01-21T17:27:22.304Z,90.80
2018-01-21T17:29:49.741Z,91.10
2018-01-21T17:32:17.209Z,91.10
2018-01-21T17:34:44.632Z,91.40
2018-01-21T17:37:12.057Z,91.80
2018-01-21T17:39:39.500Z,91.80
2018-01-21T17:42:06.930Z,91.80
2018-01-21T17:44:34.367Z,91.80
2018-01-21T17:47:01.800Z,92.60
2018-01-21T17:49:30.916Z,93.00
2018-01-21T17:51:58.346Z,93.00
2018-01-21T17:54:25.784Z,93.10
2018-01-21T17:56:53.230Z,93.40
2018-01-21T17:59:20.677Z,93.90
2018-01-21T18:01:48.125Z,93.90
2018-01-21T18:04:15.613Z,93.90
2018-01-21T18:06:43.063Z,93.80
2018-01-21T18:09:11.261Z,94.10
2018-01-21T18:11:38.692Z,94.10
2018-01-21T18:14:06.625Z,93.90
2018-01-21T18:16:34.073Z,93.70
2018-01-21T18:19:01.501Z,93.80
2018-01-21T18:21:28.930Z,93.60
2018-01-21T18:23:56.392Z,94.00
2018-01-21T18:26:23.836Z,94.20
2018-01-21T18:28:51.277Z,94.10
2018-01-21T18:31:18.691Z,93.90
2018-01-21T18:33:46.133Z,93.90
2018-01-21T18:36:13.561Z,93.80
2018-01-21T18:38:41.009Z,93.90
2018-01-21T18:41:08.434Z,94.30
2018-01-21T18:43:36.633Z,94.30
2018-01-21T18:46:04.064Z,94.60
2018-01-21T18:48:32.265Z,94.30
2018-01-21T18:50:59.738Z,94.30
2018-01-21T18:53:27.172Z,94.30
2018-01-21T18:55:54.717Z,94.80
2018-01-21T18:58:22.916Z,95.00
2018-01-21T19:00:50.345Z,94.90
2018-01-21T19:03:18.540Z,94.70
2018-01-21T19:05:45.969Z,94.70
2018-01-21T19:08:14.165Z,95.10
2018-01-21T19:10:41.639Z,94.70
2018-01-21T19:13:09.064Z,94.50
2018-01-21T19:15:37.269Z,94.70
2018-01-21T19:18:04.687Z,94.70
2018-01-21T19:20:32.129Z,94.50
2018-01-21T19:22:59.583Z,94.50
2018-01-21T19:25:27.021Z,93.90
2018-01-21T19:27:54.448Z,93.80
2018-01-21T19:30:21.882Z,94.20
2018-01-21T19:32:50.066Z,94.10
2018-01-21T19:35:18.261Z,94.40
2018-01-21T19:37:45.688Z,94.40
2018-01-21T19:40:16.432Z,93.90
2018-01-21T19:42:47.036Z,94.20
2018-01-21T19:45:20.192Z,94.20
2018-01-21T19:47:47.619Z,94.20
2018-01-21T19:50:15.053Z,94.30
2018-01-21T19:52:42.514Z,94.60
2018-01-21T19:55:10.725Z,94.90
2018-01-21T19:57:38.160Z,94.80
2018-01-21T20:00:06.362Z,94.40
2018-01-21T20:02:33.809Z,94.30
2018-01-21T20:05:01.237Z,94.30
2018-01-21T20:07:29.460Z,93.40
2018-01-21T20:09:56.892Z,93.40
2018-01-21T20:12:25.077Z,94.10
2018-01-21T20:14:52.524Z,94.10
2018-01-21T20:17:19.950Z,94.30
2018-01-21T20:19:47.383Z,94.70
2018-01-21T20:22:14.832Z,94.00
2018-01-21T20:24:42.244Z,93.90
2018-01-21T20:27:10.725Z,93.40
2018-01-21T20:29:39.460Z,93.40
2018-01-21T20:32:06.972Z,93.20
2018-01-21T20:34:35.755Z,92.80
2018-01-21T20:37:04.267Z,92.60
2018-01-21T20:39:31.701Z,92.50
2018-01-21T20:42:00.323Z,92.40
2018-01-21T20:44:28.182Z,92.40
2018-01-21T20:46:55.636Z,92.40
2018-01-21T20:49:23.278Z,92.20
2018-01-21T20:51:56.588Z,92.20
2018-01-21T20:54:30.924Z,92.00
2018-01-21T20:56:58.918Z,92.00
2018-01-21T20:59:26.512Z,91.90
2018-01-21T21:01:55.293Z,92.20
2018-01-21T21:04:23.527Z,92.10
2018-01-21T21:06:51.837Z,92.10
2018-01-21T21:09:21.053Z,92.10
2018-01-21T21:11:50.284Z,92.10
2018-01-21T21:14:18.315Z,92.10
2018-01-21T21:16:46.055Z,92.00
2018-01-21T21:19:13.552Z,91.80
2018-01-21T21:21:41.316Z,91.90
2018-01-21T21:24:09.618Z,91.80
2018-01-21T21:26:37.609Z,91.90
2018-01-21T21:29:05.589Z,91.80
2018-01-21T21:31:33.041Z,91.80
2018-01-21T21:34:00.479Z,91.60
2018-01-21T21:36:27.900Z,91.80
2018-01-21T21:38:56.105Z,91.50
2018-01-21T21:41:23.536Z,91.50
2018-01-21T21:43:51.731Z,91.60
2018-01-21T21:46:19.169Z,91.60
2018-01-21T21:48:47.352Z,91.30
2018-01-21T21:51:14.789Z,91.30
2018-01-21T21:53:42.977Z,91.40
2018-01-21T21:56:11.180Z,91.30
2018-01-21T21:58:38.609Z,91.30
2018-01-21T22:01:06.914Z,90.90
2018-01-21T22:03:34.324Z,90.90
2018-01-21T22:06:01.756Z,90.80
2018-01-21T22:08:29.191Z,90.60
2018-01-21T22:10:56.646Z,90.80
2018-01-21T22:13:24.056Z,90.80
2018-01-21T22:15:52.264Z,90.90
2018-01-21T22:18:19.696Z,90.90
2018-01-21T22:20:47.900Z,90.50
2018-01-21T22:23:15.330Z,90.50
2018-01-21T22:25:43.538Z,90.80
2018-01-21T22:28:10.963Z,90.80
2018-01-21T22:30:39.172Z,90.10
2018-01-21T22:33:06.747Z,90.10
2018-01-21T22:35:34.172Z,90.20
2018-01-21T22:38:01.613Z,89.50
2018-01-21T22:40:29.796Z,89.80
2018-01-21T22:42:57.228Z,89.70
2018-01-21T22:45:24.670Z,88.80
2018-01-21T22:47:52.112Z,88.00
2018-01-21T22:50:19.553Z,87.70
2018-01-21T22:52:47.021Z,88.00
2018-01-21T22:55:14.488Z,88.20
2018-01-21T22:57:42.619Z,88.80
2018-01-21T23:00:10.041Z,88.60
2018-01-21T23:02:37.535Z,88.10
2018-01-21T23:05:04.905Z,88.10
2018-01-21T23:07:32.336Z,88.50
2018-01-21T23:10:00.531Z,90.10
2018-01-21T23:12:27.961Z,90.10
2018-01-21T23:14:56.148Z,90.80
2018-01-21T23:17:24.355Z,91.00
2018-01-21T23:19:51.806Z,91.00
2018-01-21T23:22:19.267Z,91.50
2018-01-21T23:24:46.697Z,92.20
2018-01-21T23:27:14.123Z,92.00
2018-01-21T23:29:41.561Z,92.50
2018-01-21T23:32:09.765Z,92.80
2018-01-21T23:34:37.197Z,92.80
2018-01-21T23:37:04.629Z,92.70
2018-01-21T23:39:32.052Z,93.30
2018-01-21T23:42:00.248Z,93.50
2018-01-21T23:44:27.677Z,93.50
2018-01-21T23:46:55.881Z,93.90
2018-01-21T23:49:23.309Z,93.90
2018-01-21T23:51:51.513Z,93.90
2018-01-21T23:54:18.955Z,93.90
2018-01-21T23:56:47.158Z,93.70
2018-01-21T23:59:14.593Z,93.70
